Terminal Aerodrome Forecast
Issued by NWS

Home | Current Version | Previous Version | Graphics & Text | Print | Product List | Glossary On
Versions: 1 2 3 4 5 6 7 8 9 10 11 12 13 14 15 16 17 18 19 20
000
FTUS43 KBIS 282100 AAB
TAFJMS
TAF AMD
KJMS 282100Z 2821/2918 19014KT P6SM VCTS SCT110CB
      TEMPO 2821/2823 VRB20G30KT 3SM TSRA BKN040CB
     FM290030 34011KT P6SM VCSH SCT025 BKN080
     FM290500 36014G19KT P6SM BKN010
     FM291500 36011KT P6SM SCT025=

USA.gov is the U.S. government's official web portal to all federal, state and local government web resources and services.